This is the latest recevied weather packets stored in our database for station/object DL3CSM-13. If no packets are shown the sender has not sent any weather packets the latest 1 day(s).
| Time | Temp. | Humidity | Pressure | Rain* | Wind** | Luminosity | Snow |
|---|---|---|---|---|---|---|---|
| 1777971611 | 21.11° C | 51% | 1008.7 hPa | 0 mm | 0.45 m/s, 10° | - | - |
| 1777970711 | 20° C | 54% | 1008.9 hPa | 0 mm | 0.45 m/s, 134° | - | - |
| 1777969811 | 19.44° C | 55% | 1009.1 hPa | 0 mm | 0.45 m/s, 204° | - | - |
| 1777968911 | 18.33° C | 61% | 1009.2 hPa | 0 mm | 1.34 m/s, 216° | - | - |
| 1777967111 | 16.67° C | 66% | 1009.5 hPa | 0 mm | 1.34 m/s, 207° | - | - |
| 1777966211 | 15.56° C | 69% | 1009.4 hPa | 0 mm | 0.45 m/s, 216° | - | - |
| 1777965311 | 15° C | 72% | 1009.5 hPa | 0 mm | 0.45 m/s, 209° | - | - |
| 1777964411 | 14.44° C | 73% | 1009.4 hPa | 0 mm | 0.45 m/s, 225° | - | - |
| 1777962611 | 13.33° C | 76% | 1009.6 hPa | 0 mm | 0 m/s | - | - |
| 1777961711 | 12.78° C | 77% | 1009.7 hPa | 0 mm | 0 m/s | - | - |
| 1777960811 | 12.78° C | 80% | 1009.9 hPa | 0 mm | 0 m/s | - | - |
| 1777959911 | 11.67° C | 83% | 1009.8 hPa | 0 mm | 0 m/s | - | - |
| 1777958111 | 10.56° C | 87% | 1009.8 hPa | 0 mm | 0.45 m/s, 197° | - | - |
| 1777957211 | 10° C | 87% | 1009.8 hPa | 0 mm | 0.89 m/s, 207° | - | - |
| 1777956311 | 9.44° C | 86% | 1009.8 hPa | 0 mm | 0.45 m/s, 208° | - | - |
| 1777955411 | 9.44° C | 85% | 1009.7 hPa | 0 mm | 0 m/s | - | - |
| 1777954511 | 9.44° C | 85% | 1009.8 hPa | 0 mm | 0 m/s | - | - |
| 1777953611 | 9.44° C | 85% | 1009.9 hPa | 0 mm | 0 m/s | - | - |
| 1777951811 | 10° C | 84% | 1010 hPa | 0 mm | 0 m/s | - | - |
| 1777950011 | 10.56° C | 83% | 1010.3 hPa | 0 mm | 0 m/s | - | - |
| 1777949111 | 10.56° C | 83% | 1010.3 hPa | 0 mm | 0 m/s | - | - |
| 1777947311 | 10.56° C | 82% | 1010.6 hPa | 0 mm | 0.89 m/s, 202° | - | - |
| 1777946411 | 11.11° C | 81% | 1010.6 hPa | 0 mm | 0 m/s | - | - |
| 1777945511 | 11.11° C | 79% | 1010.6 hPa | 0 mm | 0.45 m/s, 198° | - | - |
* Rain latest hour (hover to see other rain measurements)
** Current wind speed in m/s (hover to see current wind gust speed)